Maldives Meteorological Service

TAFS

Station TAF
VRMM
VRMM 190500Z 1906/2012 02009KT 8000 FEW018=
VRMH
VRMH 190500Z 1906/2006 05006KT 9000 FEW018=
VRMK
VRMK 190500Z 1906/2006 02006KT 9999 FEW018=
VRMT
VRMT 190500Z 1906/2006 05005KT 9999 FEW018 TEMPO 1906/1920 FEW018CB=
VRMG
VRMG 190500Z 1906/2012 05007KT 9999 FEW018 TEMPO 1906/1912 FEW018CB=